createdAt,value
2023-03-31T00:01:04.645Z,14.40
2023-03-31T00:03:34.306Z,14.23
2023-03-31T00:06:04.667Z,14.13
2023-03-31T00:08:36.558Z,12.20
2023-03-31T00:11:07.464Z,13.07
2023-03-31T00:13:37.029Z,10.33
2023-03-31T00:16:06.921Z,11.87
2023-03-31T00:18:35.773Z,12.13
2023-03-31T00:21:14.725Z,10.97
2023-03-31T00:23:43.380Z,19.97
2023-03-31T00:26:11.739Z,15.63
2023-03-31T00:28:40.112Z,13.57
2023-03-31T00:31:08.482Z,12.90
2023-03-31T00:33:36.856Z,12.53
2023-03-31T00:36:06.642Z,12.67
2023-03-31T00:38:37.102Z,20.10
2023-03-31T00:41:06.687Z,16.70
2023-03-31T00:43:35.836Z,16.67
2023-03-31T00:46:07.436Z,17.20
2023-03-31T00:48:38.522Z,16.67
2023-03-31T00:51:08.545Z,20.60
2023-03-31T00:53:38.824Z,14.10
2023-03-31T00:56:08.940Z,15.07
2023-03-31T00:58:43.668Z,15.43
2023-03-31T01:01:14.464Z,12.97
2023-03-31T01:03:46.914Z,15.13
2023-03-31T01:06:16.843Z,14.13
2023-03-31T01:08:48.817Z,14.30
2023-03-31T01:11:18.959Z,14.37
2023-03-31T01:13:50.421Z,15.73
2023-03-31T01:16:19.459Z,19.87
2023-03-31T01:18:49.763Z,12.43
2023-03-31T01:21:36.320Z,15.90
2023-03-31T01:24:25.356Z,15.20
2023-03-31T01:26:58.526Z,20.80
2023-03-31T01:29:44.836Z,19.43
2023-03-31T01:32:23.410Z,16.17
2023-03-31T01:35:15.285Z,18.53
2023-03-31T01:38:02.634Z,16.47
2023-03-31T01:40:48.970Z,21.10
2023-03-31T01:43:21.922Z,16.93
2023-03-31T01:45:56.613Z,14.63
2023-03-31T01:48:30.183Z,15.53
2023-03-31T01:50:59.870Z,16.33
2023-03-31T01:53:33.586Z,11.53
2023-03-31T01:56:05.157Z,15.77
2023-03-31T01:58:38.738Z,14.13
2023-03-31T02:01:11.907Z,14.23
2023-03-31T02:03:42.231Z,17.73
2023-03-31T02:06:12.647Z,15.00
2023-03-31T02:08:43.525Z,13.33
2023-03-31T02:11:12.283Z,15.13
2023-03-31T02:13:44.573Z,17.30
2023-03-31T02:16:17.272Z,21.20
2023-03-31T02:18:46.161Z,15.83
2023-03-31T02:21:16.522Z,15.40
2023-03-31T02:23:46.304Z,17.47
2023-03-31T02:26:16.328Z,14.97
2023-03-31T02:28:46.558Z,16.17
2023-03-31T02:31:20.026Z,19.73
2023-03-31T02:33:48.902Z,18.37
2023-03-31T02:36:18.020Z,16.10
2023-03-31T02:38:49.712Z,15.93
2023-03-31T02:41:18.344Z,15.77
2023-03-31T02:43:48.346Z,15.90
2023-03-31T02:46:16.761Z,12.17
2023-03-31T02:48:46.849Z,15.23
2023-03-31T02:51:32.040Z,17.43
2023-03-31T02:54:09.981Z,19.47
2023-03-31T02:57:15.991Z,11.93
2023-03-31T02:59:50.265Z,14.20
2023-03-31T03:02:24.855Z,17.93
2023-03-31T03:05:02.315Z,17.63
2023-03-31T03:07:37.664Z,13.47
2023-03-31T03:10:09.118Z,14.53
2023-03-31T03:12:42.330Z,22.07
2023-03-31T03:15:15.949Z,13.80
2023-03-31T03:17:45.880Z,12.87
2023-03-31T03:20:16.200Z,17.57
2023-03-31T03:22:44.643Z,15.33
2023-03-31T03:25:14.992Z,13.73
2023-03-31T03:27:43.368Z,14.20
2023-03-31T03:30:14.455Z,14.57
2023-03-31T03:32:43.254Z,17.20
2023-03-31T03:35:12.395Z,15.47
2023-03-31T03:37:40.996Z,14.73
2023-03-31T03:40:10.512Z,14.53
2023-03-31T03:42:39.407Z,23.43
2023-03-31T03:45:08.591Z,18.97
2023-03-31T03:47:38.374Z,14.90
2023-03-31T03:50:07.358Z,39.93
2023-03-31T03:52:35.821Z,24.00
2023-03-31T03:55:04.252Z,16.87
2023-03-31T03:57:32.710Z,19.10
2023-03-31T04:00:01.076Z,19.23
2023-03-31T04:02:41.349Z,18.83
2023-03-31T04:05:10.429Z,19.20
2023-03-31T04:07:38.877Z,19.17
2023-03-31T04:10:07.754Z,21.00
2023-03-31T04:12:36.349Z,13.10
2023-03-31T04:15:04.849Z,18.23
2023-03-31T04:17:34.689Z,21.00
2023-03-31T04:20:09.397Z,22.13
2023-03-31T04:22:40.521Z,23.87
2023-03-31T04:25:14.732Z,21.37
2023-03-31T04:27:46.694Z,22.30
2023-03-31T04:30:22.846Z,20.13
2023-03-31T04:32:53.410Z,20.07
2023-03-31T04:35:23.712Z,22.50
2023-03-31T04:37:59.098Z,21.73
2023-03-31T04:40:27.724Z,18.53
2023-03-31T04:42:56.290Z,20.60
2023-03-31T04:45:24.897Z,28.70
2023-03-31T04:47:53.442Z,22.90
2023-03-31T04:50:23.276Z,22.53
2023-03-31T04:52:51.659Z,14.93
2023-03-31T04:55:20.065Z,22.00
2023-03-31T04:57:48.479Z,22.33
2023-03-31T05:00:17.293Z,19.70
2023-03-31T05:02:45.926Z,18.90
2023-03-31T05:05:14.528Z,17.50
2023-03-31T05:07:44.422Z,19.20
2023-03-31T05:10:12.981Z,21.07
2023-03-31T05:12:41.850Z,19.53
2023-03-31T05:15:13.096Z,17.80
2023-03-31T05:17:41.644Z,20.73
2023-03-31T05:20:10.671Z,20.93
2023-03-31T05:22:40.772Z,16.63
2023-03-31T05:25:14.495Z,25.87
2023-03-31T05:27:43.161Z,24.70
2023-03-31T05:30:11.913Z,23.77
2023-03-31T05:32:40.602Z,18.03
2023-03-31T05:35:09.664Z,21.13
2023-03-31T05:37:38.787Z,22.37
2023-03-31T05:40:08.218Z,20.93
2023-03-31T05:42:41.989Z,20.20
2023-03-31T05:45:11.219Z,17.30
2023-03-31T05:47:42.563Z,21.60
2023-03-31T05:50:14.562Z,16.27
2023-03-31T05:52:43.400Z,16.83
2023-03-31T05:55:13.265Z,14.10
2023-03-31T05:57:43.086Z,15.63
2023-03-31T06:00:12.408Z,12.80
2023-03-31T06:02:41.220Z,15.40
2023-03-31T06:05:10.026Z,15.43
2023-03-31T06:07:38.425Z,19.37
2023-03-31T06:10:08.347Z,14.30
2023-03-31T06:12:36.739Z,14.80
2023-03-31T06:15:07.277Z,14.83
2023-03-31T06:17:38.819Z,14.67
2023-03-31T06:20:24.070Z,18.03
2023-03-31T06:22:55.345Z,16.03
2023-03-31T06:25:23.715Z,17.47
2023-03-31T06:27:52.550Z,14.20
2023-03-31T06:30:22.654Z,20.60
2023-03-31T06:32:51.125Z,12.87
2023-03-31T06:35:19.556Z,15.33
2023-03-31T06:37:47.945Z,15.87
2023-03-31T06:40:16.627Z,18.87
2023-03-31T06:42:45.045Z,12.63
2023-03-31T06:45:13.500Z,20.20
2023-03-31T06:47:43.557Z,16.73
2023-03-31T06:50:12.385Z,15.67
2023-03-31T06:52:40.933Z,20.70
2023-03-31T06:55:10.155Z,23.20
2023-03-31T06:57:39.088Z,21.80
2023-03-31T07:00:08.652Z,19.73
2023-03-31T07:02:38.169Z,23.53
2023-03-31T07:05:09.081Z,21.97
2023-03-31T07:07:37.642Z,25.30
2023-03-31T07:10:06.330Z,15.73
2023-03-31T07:12:35.139Z,24.80
2023-03-31T07:15:03.538Z,19.70
2023-03-31T07:17:31.978Z,28.53
2023-03-31T07:20:00.400Z,35.13
2023-03-31T07:22:30.993Z,26.67
2023-03-31T07:24:59.580Z,25.23
2023-03-31T07:27:30.000Z,22.53
2023-03-31T07:30:00.723Z,22.00
2023-03-31T07:32:29.482Z,17.83
2023-03-31T07:34:58.213Z,19.23
2023-03-31T07:37:26.879Z,16.07
2023-03-31T07:39:56.676Z,19.07
2023-03-31T07:42:25.210Z,18.73
2023-03-31T07:44:54.048Z,17.10
2023-03-31T07:47:22.470Z,14.23
2023-03-31T07:49:50.938Z,19.70
2023-03-31T07:52:19.949Z,15.77
2023-03-31T07:54:48.563Z,15.63
2023-03-31T07:57:19.890Z,17.40
2023-03-31T07:59:48.440Z,13.53
2023-03-31T08:02:17.804Z,15.27
2023-03-31T08:04:46.720Z,15.57
2023-03-31T08:07:16.562Z,16.43
2023-03-31T08:09:46.139Z,16.87
2023-03-31T08:12:16.153Z,13.37
2023-03-31T08:14:45.937Z,15.53
2023-03-31T08:17:14.545Z,16.33
2023-03-31T08:19:42.945Z,14.60
2023-03-31T08:22:11.621Z,13.47
2023-03-31T08:24:40.058Z,16.50
2023-03-31T08:27:11.934Z,12.93
2023-03-31T08:29:41.986Z,16.23
2023-03-31T08:32:11.799Z,12.73
2023-03-31T08:34:42.705Z,14.00
2023-03-31T08:37:11.259Z,15.57
2023-03-31T08:39:39.719Z,11.60
2023-03-31T08:42:15.477Z,7.97
2023-03-31T08:44:46.374Z,10.97
2023-03-31T08:47:22.348Z,7.30
2023-03-31T08:49:52.458Z,8.93
2023-03-31T08:52:23.508Z,6.80
2023-03-31T08:54:54.560Z,8.03
2023-03-31T08:57:25.807Z,4.83
2023-03-31T08:59:58.330Z,3.87
2023-03-31T09:02:33.023Z,7.13
2023-03-31T09:05:11.471Z,5.47
2023-03-31T09:07:45.381Z,4.03
2023-03-31T09:10:22.158Z,5.43
2023-03-31T09:12:55.326Z,4.75
2023-03-31T09:15:26.743Z,5.33
2023-03-31T09:17:57.879Z,5.17
2023-03-31T09:20:30.398Z,2.73
2023-03-31T09:23:02.928Z,3.73
2023-03-31T09:25:34.503Z,2.00
2023-03-31T09:28:04.812Z,3.47
2023-03-31T09:30:35.429Z,4.20
2023-03-31T09:33:13.219Z,3.83
2023-03-31T09:35:43.795Z,4.70
2023-03-31T09:38:13.811Z,4.70
2023-03-31T09:40:44.148Z,4.72
2023-03-31T09:43:18.401Z,3.72
2023-03-31T09:46:01.400Z,4.07
2023-03-31T09:48:37.589Z,6.22
2023-03-31T09:51:07.185Z,2.60
2023-03-31T09:53:40.494Z,5.22
2023-03-31T09:56:11.564Z,4.70
2023-03-31T09:58:43.141Z,4.75
2023-03-31T10:01:13.174Z,4.03
2023-03-31T10:03:50.069Z,3.78
2023-03-31T10:06:19.434Z,6.05
2023-03-31T10:08:50.223Z,6.63
2023-03-31T10:11:19.113Z,5.47
2023-03-31T10:13:49.172Z,4.90
2023-03-31T10:16:23.708Z,7.68
2023-03-31T10:18:54.095Z,6.43
2023-03-31T10:21:24.235Z,5.70
2023-03-31T10:23:53.242Z,4.78
2023-03-31T10:26:23.203Z,5.15
2023-03-31T10:28:53.089Z,4.00
2023-03-31T10:31:22.616Z,4.90
2023-03-31T10:33:52.626Z,4.18
2023-03-31T10:36:23.661Z,4.15
2023-03-31T10:38:53.197Z,2.47
2023-03-31T10:41:22.485Z,4.30
2023-03-31T10:43:52.581Z,3.13
2023-03-31T10:46:22.291Z,2.63
2023-03-31T10:48:53.208Z,4.45
2023-03-31T10:51:23.826Z,3.05
2023-03-31T10:53:53.212Z,2.60
2023-03-31T10:56:28.862Z,3.63
2023-03-31T10:59:06.630Z,6.63
2023-03-31T11:01:41.213Z,3.00
2023-03-31T11:04:21.206Z,3.38
2023-03-31T11:06:57.611Z,3.67
2023-03-31T11:09:35.588Z,4.83
2023-03-31T11:12:10.080Z,2.50
2023-03-31T11:14:45.782Z,3.03
2023-03-31T11:17:22.401Z,3.97
2023-03-31T11:19:55.139Z,5.47
2023-03-31T11:22:28.099Z,3.53
2023-03-31T11:25:07.213Z,4.47
2023-03-31T11:27:41.817Z,3.72
2023-03-31T11:30:12.861Z,2.75
2023-03-31T11:32:49.693Z,2.60
2023-03-31T11:35:39.146Z,3.28
2023-03-31T11:38:22.587Z,2.65
2023-03-31T11:40:57.522Z,2.80
2023-03-31T11:43:28.800Z,4.53
2023-03-31T11:46:01.088Z,2.75
2023-03-31T11:48:36.327Z,4.10
2023-03-31T11:51:06.773Z,4.22
2023-03-31T11:53:37.582Z,2.72
2023-03-31T11:56:07.899Z,3.70
2023-03-31T11:58:39.587Z,2.58
2023-03-31T12:01:12.426Z,4.22
2023-03-31T12:03:44.716Z,4.45
2023-03-31T12:06:19.011Z,3.20
2023-03-31T12:08:53.166Z,4.78
2023-03-31T12:11:23.870Z,3.95
2023-03-31T12:13:53.186Z,5.10
2023-03-31T12:16:24.329Z,4.10
2023-03-31T12:18:59.067Z,4.40
2023-03-31T12:21:28.782Z,3.78
2023-03-31T12:23:58.521Z,5.80
2023-03-31T12:26:33.654Z,4.55
2023-03-31T12:29:05.801Z,1.85
2023-03-31T12:31:34.823Z,4.22
2023-03-31T12:34:05.895Z,5.22
2023-03-31T12:36:41.110Z,3.03
2023-03-31T12:39:18.028Z,5.22
2023-03-31T12:41:47.794Z,4.95
2023-03-31T12:44:21.331Z,1.73
2023-03-31T12:47:01.373Z,3.53
2023-03-31T12:49:34.977Z,7.97
2023-03-31T12:52:05.926Z,2.73
2023-03-31T12:54:44.575Z,4.90
2023-03-31T12:57:17.475Z,2.57
2023-03-31T12:59:47.161Z,4.63
2023-03-31T13:02:24.491Z,7.70
2023-03-31T13:04:53.440Z,3.90
2023-03-31T13:07:43.695Z,5.67
2023-03-31T13:10:30.207Z,1.63
2023-03-31T13:13:02.357Z,3.27
2023-03-31T13:15:31.595Z,6.83
2023-03-31T13:18:01.273Z,2.17
2023-03-31T13:20:36.076Z,2.17
2023-03-31T13:23:06.941Z,1.83
2023-03-31T13:25:50.314Z,2.97
2023-03-31T13:28:33.547Z,2.90
2023-03-31T13:31:03.163Z,2.30
2023-03-31T13:33:39.510Z,5.20
2023-03-31T13:36:25.255Z,2.23
2023-03-31T13:39:00.836Z,3.77
2023-03-31T13:41:38.331Z,4.00
2023-03-31T13:44:21.749Z,3.77
2023-03-31T13:46:54.603Z,11.00
2023-03-31T13:49:35.653Z,5.23
2023-03-31T13:52:04.758Z,4.80
2023-03-31T13:54:52.681Z,2.13
2023-03-31T13:57:29.815Z,2.33
2023-03-31T14:00:11.958Z,0.97
2023-03-31T14:02:50.779Z,2.30
2023-03-31T14:05:25.192Z,2.80
2023-03-31T14:07:57.194Z,3.10
2023-03-31T14:10:27.367Z,0.97
2023-03-31T14:13:06.377Z,4.57
2023-03-31T14:15:35.546Z,2.43
2023-03-31T14:18:07.033Z,3.23
2023-03-31T14:20:41.221Z,4.00
2023-03-31T14:23:17.339Z,3.67
2023-03-31T14:25:51.037Z,4.07
2023-03-31T14:28:34.842Z,3.67
2023-03-31T14:31:13.400Z,3.53
2023-03-31T14:33:47.498Z,4.60
2023-03-31T14:36:21.694Z,4.23
2023-03-31T14:38:50.517Z,6.23
2023-03-31T14:41:21.296Z,3.00
2023-03-31T14:43:51.128Z,4.77
2023-03-31T14:46:21.837Z,7.90
2023-03-31T14:48:52.700Z,5.30
2023-03-31T14:51:26.593Z,4.47
2023-03-31T14:54:00.621Z,5.00
2023-03-31T14:56:33.894Z,3.37
2023-03-31T14:59:03.393Z,2.60
2023-03-31T15:01:35.791Z,3.17
2023-03-31T15:04:08.398Z,5.73
2023-03-31T15:06:39.853Z,3.87
2023-03-31T15:09:08.870Z,3.97
2023-03-31T15:11:37.329Z,2.93
2023-03-31T15:14:06.138Z,4.10
2023-03-31T15:16:41.630Z,2.93
2023-03-31T15:19:16.339Z,3.10
2023-03-31T15:21:45.520Z,3.47
2023-03-31T15:24:14.656Z,2.83
2023-03-31T15:26:45.135Z,2.80
2023-03-31T15:29:16.216Z,4.37
2023-03-31T15:31:44.956Z,3.03
2023-03-31T15:34:16.155Z,4.23
2023-03-31T15:36:45.275Z,3.00
2023-03-31T15:39:15.662Z,2.53
2023-03-31T15:41:44.411Z,4.97
2023-03-31T15:44:28.768Z,3.63
2023-03-31T15:47:00.043Z,2.57
2023-03-31T15:49:30.123Z,4.20
2023-03-31T15:52:00.573Z,2.73
2023-03-31T15:54:34.551Z,5.97
2023-03-31T15:57:03.545Z,4.50
2023-03-31T15:59:41.829Z,5.00
2023-03-31T16:02:17.015Z,4.80
2023-03-31T16:04:49.246Z,4.77
2023-03-31T16:07:19.825Z,4.53
2023-03-31T16:09:49.564Z,2.90
2023-03-31T16:12:21.610Z,5.90
2023-03-31T16:14:52.989Z,2.60
2023-03-31T16:17:24.631Z,4.43
2023-03-31T16:19:57.617Z,2.40
2023-03-31T16:22:27.979Z,5.67
2023-03-31T16:24:56.536Z,3.67
2023-03-31T16:27:25.504Z,3.40
2023-03-31T16:30:06.545Z,3.37
2023-03-31T16:32:35.288Z,3.13
2023-03-31T16:35:07.145Z,4.03
2023-03-31T16:37:35.755Z,3.27
2023-03-31T16:40:05.291Z,3.53
2023-03-31T16:42:33.975Z,3.17
2023-03-31T16:45:13.802Z,1.33
2023-03-31T16:50:33.046Z,3.20
2023-03-31T16:53:01.761Z,2.87
2023-03-31T16:55:31.502Z,4.17
2023-03-31T16:58:02.963Z,5.33
2023-03-31T17:00:31.976Z,2.17
2023-03-31T17:03:01.557Z,2.40
2023-03-31T17:05:31.630Z,1.70
2023-03-31T17:08:02.632Z,1.57
2023-03-31T17:10:31.219Z,3.77
2023-03-31T17:12:59.662Z,4.37
2023-03-31T17:15:29.499Z,3.60
2023-03-31T17:17:59.030Z,1.97
2023-03-31T17:20:27.665Z,2.30
2023-03-31T17:22:56.188Z,1.90
2023-03-31T17:25:26.084Z,2.37
2023-03-31T17:27:55.872Z,2.07
2023-03-31T17:30:24.644Z,2.03
2023-03-31T17:32:53.371Z,3.27
2023-03-31T17:35:22.602Z,4.43
2023-03-31T17:37:53.635Z,1.90
2023-03-31T17:40:22.466Z,2.03
2023-03-31T17:42:52.565Z,4.47
2023-03-31T17:45:21.030Z,4.10
2023-03-31T17:47:51.761Z,3.43
2023-03-31T17:50:20.916Z,4.93
2023-03-31T17:52:49.728Z,2.50
2023-03-31T17:55:18.263Z,2.00
2023-03-31T17:57:46.776Z,6.13
2023-03-31T18:00:19.899Z,3.90
2023-03-31T18:02:48.399Z,5.27
2023-03-31T18:05:18.501Z,2.70
2023-03-31T18:07:47.370Z,3.53
2023-03-31T18:10:19.058Z,2.53
2023-03-31T18:12:47.850Z,1.53
2023-03-31T18:15:17.744Z,2.10
2023-03-31T18:17:46.371Z,2.80
2023-03-31T18:20:14.898Z,3.93
2023-03-31T18:22:43.446Z,5.67
2023-03-31T18:25:13.099Z,4.43
2023-03-31T18:27:41.856Z,3.73
2023-03-31T18:30:11.347Z,5.33
2023-03-31T18:32:41.270Z,1.97
2023-03-31T18:35:10.247Z,3.03
2023-03-31T18:37:38.740Z,2.50
2023-03-31T18:40:07.942Z,1.27
2023-03-31T18:42:37.821Z,2.20
2023-03-31T18:45:06.696Z,2.73
2023-03-31T18:47:36.133Z,2.33
2023-03-31T18:50:06.153Z,1.57
2023-03-31T18:52:36.269Z,5.37
2023-03-31T18:55:05.772Z,3.27
2023-03-31T18:57:34.430Z,1.97
2023-03-31T19:00:03.726Z,2.63
2023-03-31T19:02:32.380Z,2.80
2023-03-31T19:05:00.893Z,2.67
2023-03-31T19:07:30.656Z,2.67
2023-03-31T19:09:59.125Z,5.00
2023-03-31T19:12:27.542Z,3.00
2023-03-31T19:14:56.086Z,4.07
2023-03-31T19:17:24.690Z,3.53
2023-03-31T19:19:53.162Z,2.77
2023-03-31T19:22:21.932Z,2.93
2023-03-31T19:24:52.243Z,1.87
2023-03-31T19:27:20.738Z,3.17
2023-03-31T19:29:49.263Z,3.23
2023-03-31T19:32:17.995Z,5.50
2023-03-31T19:34:48.023Z,4.00
2023-03-31T19:37:16.419Z,4.23
2023-03-31T19:39:44.864Z,5.17
2023-03-31T19:42:15.446Z,4.07
2023-03-31T19:44:45.640Z,6.30
2023-03-31T19:47:14.502Z,5.20
2023-03-31T19:49:42.961Z,2.90
2023-03-31T19:52:11.664Z,3.63
2023-03-31T19:54:41.174Z,8.63
2023-03-31T19:57:09.842Z,3.80
2023-03-31T19:59:39.788Z,3.80
2023-03-31T20:02:08.759Z,2.60
2023-03-31T20:04:37.363Z,2.37
2023-03-31T20:07:05.891Z,3.03
2023-03-31T20:09:34.503Z,4.70
2023-03-31T20:12:03.953Z,7.00
2023-03-31T20:14:32.416Z,3.57
2023-03-31T20:17:03.284Z,2.63
2023-03-31T20:19:31.757Z,2.63
2023-03-31T20:22:00.630Z,3.37
2023-03-31T20:24:29.449Z,5.37
2023-03-31T20:26:58.660Z,4.07
2023-03-31T20:29:27.171Z,8.60
2023-03-31T20:31:55.988Z,5.43
2023-03-31T20:34:27.548Z,4.73
2023-03-31T20:36:56.480Z,3.77
2023-03-31T20:39:24.916Z,3.50
2023-03-31T20:41:55.095Z,6.53
2023-03-31T20:44:23.863Z,5.57
2023-03-31T20:46:52.475Z,3.40
2023-03-31T20:49:20.968Z,4.03
2023-03-31T20:51:51.936Z,7.10
2023-03-31T20:54:20.663Z,6.10
2023-03-31T20:56:50.442Z,5.77
2023-03-31T20:59:19.022Z,5.03
2023-03-31T21:01:49.800Z,7.90
2023-03-31T21:04:18.381Z,4.43
2023-03-31T21:06:47.632Z,9.87
2023-03-31T21:09:17.780Z,4.37
2023-03-31T21:11:47.358Z,4.53
2023-03-31T21:14:16.429Z,6.33
2023-03-31T21:16:45.031Z,3.03
2023-03-31T21:19:13.819Z,6.53
2023-03-31T21:21:43.250Z,4.07
2023-03-31T21:24:12.929Z,6.47
2023-03-31T21:26:42.715Z,2.70
2023-03-31T21:29:11.387Z,6.07
2023-03-31T21:31:41.673Z,2.67
2023-03-31T21:34:10.905Z,4.47
2023-03-31T21:36:39.727Z,6.63
2023-03-31T21:39:09.738Z,5.17
2023-03-31T21:41:39.876Z,2.30
2023-03-31T21:44:10.033Z,4.00
2023-03-31T21:46:39.355Z,2.90
2023-03-31T21:49:07.897Z,3.40
2023-03-31T21:51:36.417Z,3.43
2023-03-31T21:54:04.991Z,6.03
2023-03-31T21:56:33.638Z,3.20
2023-03-31T21:59:02.256Z,2.53
2023-03-31T22:01:32.495Z,5.50
2023-03-31T22:04:01.640Z,2.73
2023-03-31T22:06:30.099Z,5.10
2023-03-31T22:08:58.533Z,3.90
2023-03-31T22:11:28.399Z,2.67
2023-03-31T22:13:56.869Z,4.00
2023-03-31T22:16:25.534Z,4.00
2023-03-31T22:18:56.183Z,3.47
2023-03-31T22:21:40.941Z,2.83
2023-03-31T22:24:12.257Z,3.83
2023-03-31T22:26:40.779Z,2.60
2023-03-31T22:29:09.199Z,3.47
2023-03-31T22:31:37.847Z,3.90
2023-03-31T22:34:07.967Z,3.17
2023-03-31T22:36:36.401Z,3.57
2023-03-31T22:39:04.934Z,2.23
2023-03-31T22:41:33.324Z,3.47
2023-03-31T22:44:01.754Z,4.73
2023-03-31T22:46:30.576Z,2.57
2023-03-31T22:48:59.075Z,3.97
2023-03-31T22:51:29.108Z,3.50
2023-03-31T22:53:57.861Z,2.47
2023-03-31T22:56:26.913Z,2.67
2023-03-31T22:58:58.073Z,2.07
2023-03-31T23:01:26.710Z,1.73
2023-03-31T23:03:55.803Z,1.10
2023-03-31T23:06:24.387Z,2.90
2023-03-31T23:08:54.206Z,2.03
2023-03-31T23:11:23.004Z,1.63
2023-03-31T23:13:51.445Z,1.07
2023-03-31T23:16:21.514Z,2.87
2023-03-31T23:18:51.848Z,4.03
2023-03-31T23:21:21.611Z,5.67
2023-03-31T23:23:51.909Z,3.23
2023-03-31T23:26:22.290Z,1.60
2023-03-31T23:28:50.987Z,2.87
2023-03-31T23:31:20.339Z,2.60
2023-03-31T23:33:49.054Z,2.60
2023-03-31T23:36:18.599Z,2.03
2023-03-31T23:38:47.271Z,4.10
2023-03-31T23:41:16.113Z,3.13
2023-03-31T23:43:45.992Z,4.57
2023-03-31T23:46:14.836Z,2.83
2023-03-31T23:48:43.255Z,4.53
2023-03-31T23:51:12.620Z,2.90
2023-03-31T23:53:41.089Z,2.30
2023-03-31T23:56:10.560Z,3.17
2023-03-31T23:58:39.116Z,1.53
